Time;durP1;ratioP1;P1;durP2;ratioP2;P2;SDS_P1;SDS_P2;PMS_P1;PMS_P2;Temp;Humidity;BMP_temperature;BMP_pressure;BME280_temperature;BME280_humidity;BME280_pressure;Samples;Min_cycle;Max_cycle;Signal;HPM_P1;HPM_P2
2023/10/04 00:01:50;;;;;;;19.65;15.18;;;;;;;;;;10331397;28;20045;-63
2023/10/04 00:06:51;;;;;;;19.80;15.75;;;;;;;;;;10331153;28;20022;-63
2023/10/04 00:11:51;;;;;;;23.10;16.25;;;;;;;;;;10330298;28;20046;-63
2023/10/04 00:16:57;;;;;;;24.10;16.70;;;;;;;;;;10330387;28;20026;-62
2023/10/04 00:21:57;;;;;;;21.00;16.38;;;;;;;;;;10330465;28;20027;-63
2023/10/04 00:26:58;;;;;;;20.63;17.13;;;;;;;;;;10329955;28;20030;-62
2023/10/04 00:31:58;;;;;;;20.48;16.48;;;;;;;;;;10330175;28;20084;-63
2023/10/04 00:36:59;;;;;;;21.08;15.98;;;;;;;;;;10329625;28;20269;-63
2023/10/04 00:42:00;;;;;;;20.88;17.10;;;;;;;;;;10328584;28;20093;-62
2023/10/04 00:47:05;;;;;;;20.30;16.92;;;;;;;;;;10329169;28;20023;-62
2023/10/04 00:52:08;;;;;;;19.20;16.80;;;;;;;;;;10328615;28;20030;-62
2023/10/04 00:57:10;;;;;;;19.58;15.50;;;;;;;;;;10328716;28;20026;-62
2023/10/04 01:02:10;;;;;;;19.42;16.05;;;;;;;;;;10328857;28;20085;-63
2023/10/04 01:07:11;;;;;;;28.73;16.70;;;;;;;;;;10328210;28;20027;-62
2023/10/04 01:12:12;;;;;;;21.75;16.35;;;;;;;;;;10328468;28;20038;-62
2023/10/04 01:17:13;;;;;;;19.08;14.95;;;;;;;;;;10328410;28;20026;-62
2023/10/04 01:22:13;;;;;;;21.33;16.60;;;;;;;;;;10327268;28;20030;-62
2023/10/04 01:27:14;;;;;;;18.98;16.02;;;;;;;;;;10327579;28;20027;-62
2023/10/04 01:32:15;;;;;;;18.20;14.73;;;;;;;;;;10328157;28;20042;-63
2023/10/04 01:37:16;;;;;;;19.63;14.35;;;;;;;;;;10328339;28;20031;-66
2023/10/04 01:42:16;;;;;;;19.50;14.80;;;;;;;;;;10327305;28;20026;-62
2023/10/04 01:47:19;;;;;;;16.38;13.93;;;;;;;;;;10327316;28;20170;-62
2023/10/04 01:52:20;;;;;;;18.73;14.55;;;;;;;;;;10327566;28;20126;-61
2023/10/04 01:57:21;;;;;;;16.38;13.18;;;;;;;;;;10327222;28;20065;-62
2023/10/04 02:02:23;;;;;;;16.73;13.45;;;;;;;;;;10327004;28;20046;-61
2023/10/04 02:07:24;;;;;;;16.67;13.00;;;;;;;;;;10327199;28;20034;-61
2023/10/04 02:12:24;;;;;;;15.27;13.02;;;;;;;;;;10326595;28;20055;-62
2023/10/04 02:17:25;;;;;;;16.70;13.55;;;;;;;;;;10327222;28;20026;-62
2023/10/04 02:22:25;;;;;;;15.02;13.43;;;;;;;;;;10327094;28;20033;-62
2023/10/04 02:27:27;;;;;;;16.10;13.07;;;;;;;;;;10326988;28;20508;-63
2023/10/04 02:32:30;;;;;;;14.13;12.60;;;;;;;;;;10327162;28;20034;-62
2023/10/04 02:37:31;;;;;;;14.15;12.65;;;;;;;;;;10334231;28;20030;-63
2023/10/04 02:42:34;;;;;;;18.27;13.70;;;;;;;;;;10334434;28;20034;-62
2023/10/04 02:47:34;;;;;;;15.50;12.10;;;;;;;;;;10334082;28;20033;-61
2023/10/04 02:52:35;;;;;;;16.23;13.73;;;;;;;;;;10333556;28;20037;-63
2023/10/04 02:57:36;;;;;;;15.25;13.27;;;;;;;;;;10333837;28;20026;-62
2023/10/04 03:02:37;;;;;;;15.15;13.25;;;;;;;;;;10333206;28;20438;-62
2023/10/04 03:07:39;;;;;;;17.40;13.95;;;;;;;;;;10333323;28;20116;-62
2023/10/04 03:12:41;;;;;;;16.95;13.60;;;;;;;;;;10333197;28;20038;-63
2023/10/04 03:17:41;;;;;;;15.20;13.25;;;;;;;;;;10332937;28;20030;-63
2023/10/04 03:22:42;;;;;;;19.63;13.02;;;;;;;;;;10332254;28;20027;-62
2023/10/04 03:27:44;;;;;;;15.20;13.52;;;;;;;;;;10332621;28;20474;-62
2023/10/04 03:32:53;;;;;;;17.02;13.85;;;;;;;;;;10332011;28;20382;-63
2023/10/04 03:38:01;;;;;;;17.33;13.07;;;;;;;;;;10331766;28;20446;-62
2023/10/04 03:43:06;;;;;;;18.20;13.70;;;;;;;;;;10331587;28;20027;-62
2023/10/04 03:48:15;;;;;;;20.95;14.52;;;;;;;;;;10331661;28;20026;-62
2023/10/04 03:53:18;;;;;;;16.30;13.73;;;;;;;;;;10331146;28;20025;-62
2023/10/04 03:58:20;;;;;;;17.30;13.80;;;;;;;;;;10331603;28;20029;-62
2023/10/04 04:03:21;;;;;;;17.80;14.23;;;;;;;;;;10331835;28;20122;-63
2023/10/04 04:08:21;;;;;;;16.45;13.77;;;;;;;;;;10330698;28;20463;-62
2023/10/04 04:13:23;;;;;;;16.45;13.63;;;;;;;;;;10330318;28;20058;-62
2023/10/04 04:18:25;;;;;;;19.80;13.95;;;;;;;;;;10330718;28;20042;-63
2023/10/04 04:23:26;;;;;;;17.92;14.02;;;;;;;;;;10330008;28;20162;-63
2023/10/04 04:28:26;;;;;;;19.55;14.40;;;;;;;;;;10329794;28;20101;-63
2023/10/04 04:33:28;;;;;;;17.15;14.10;;;;;;;;;;10330059;28;20031;-63
2023/10/04 04:38:29;;;;;;;16.67;14.15;;;;;;;;;;10329474;28;20109;-63
2023/10/04 04:43:38;;;;;;;19.38;13.60;;;;;;;;;;10329677;28;20027;-63
2023/10/04 04:48:40;;;;;;;17.95;14.25;;;;;;;;;;10329544;28;20402;-63
2023/10/04 04:53:42;;;;;;;16.20;13.10;;;;;;;;;;10328588;28;20386;-63
2023/10/04 04:58:47;;;;;;;21.73;14.23;;;;;;;;;;10328096;28;20536;-62
2023/10/04 05:03:50;;;;;;;14.23;12.63;;;;;;;;;;10328592;28;20030;-63
2023/10/04 05:08:56;;;;;;;15.90;12.98;;;;;;;;;;10328441;28;20029;-63
2023/10/04 05:13:58;;;;;;;17.17;13.57;;;;;;;;;;10328260;28;20093;-63
2023/10/04 05:18:58;;;;;;;16.27;13.50;;;;;;;;;;10328661;28;20109;-62
2023/10/04 05:23:59;;;;;;;19.33;14.50;;;;;;;;;;10327756;28;20026;-63
2023/10/04 05:29:01;;;;;;;19.60;14.55;;;;;;;;;;10328328;28;20032;-63
2023/10/04 05:34:01;;;;;;;17.95;13.68;;;;;;;;;;10327301;28;20031;-63
2023/10/04 05:39:03;;;;;;;21.55;14.57;;;;;;;;;;10327920;28;20022;-63
2023/10/04 05:44:04;;;;;;;19.80;14.43;;;;;;;;;;10327848;28;20031;-63
2023/10/04 05:49:09;;;;;;;17.20;14.32;;;;;;;;;;10327200;28;20027;-63
2023/10/04 05:54:10;;;;;;;18.25;14.32;;;;;;;;;;10327537;28;20015;-64
2023/10/04 05:59:12;;;;;;;19.27;13.40;;;;;;;;;;10327627;28;20030;-64
2023/10/04 06:04:13;;;;;;;19.92;15.02;;;;;;;;;;10326695;28;20467;-63
2023/10/04 06:09:26;;;;;;;20.95;15.52;;;;;;;;;;10332750;28;20034;-63
2023/10/04 06:14:26;;;;;;;20.88;14.43;;;;;;;;;;10334919;28;20125;-63
2023/10/04 06:19:28;;;;;;;16.17;12.65;;;;;;;;;;10334493;28;20037;-63
2023/10/04 06:24:28;;;;;;;20.80;14.23;;;;;;;;;;10335166;28;20057;-64
2023/10/04 06:29:29;;;;;;;24.00;15.15;;;;;;;;;;10334971;28;20364;-64
2023/10/04 06:34:30;;;;;;;20.42;14.52;;;;;;;;;;10334847;28;20077;-65
2023/10/04 06:39:31;;;;;;;17.15;13.73;;;;;;;;;;10334177;28;20073;-64
2023/10/04 06:44:31;;;;;;;17.70;14.40;;;;;;;;;;10333964;28;20030;-64
2023/10/04 06:49:32;;;;;;;22.73;14.02;;;;;;;;;;10333747;28;20030;-64
2023/10/04 06:54:33;;;;;;;20.92;14.98;;;;;;;;;;10333808;28;20030;-64
2023/10/04 06:59:33;;;;;;;21.20;14.18;;;;;;;;;;10333964;28;20025;-63
2023/10/04 07:04:34;;;;;;;23.67;14.98;;;;;;;;;;10333803;28;20228;-63
2023/10/04 07:09:34;;;;;;;18.13;14.55;;;;;;;;;;10332991;28;20037;-62
2023/10/04 07:14:35;;;;;;;26.20;14.32;;;;;;;;;;10332274;28;20046;-61
2023/10/04 07:19:37;;;;;;;21.15;12.35;;;;;;;;;;10331353;28;20030;-65
2023/10/04 07:24:37;;;;;;;16.73;12.15;;;;;;;;;;10332573;28;20069;-65
2023/10/04 07:29:38;;;;;;;21.98;11.27;;;;;;;;;;10331954;28;20398;-64
2023/10/04 07:34:38;;;;;;;15.45;10.38;;;;;;;;;;10331755;28;20553;-64
2023/10/04 07:39:39;;;;;;;21.27;11.23;;;;;;;;;;10331764;28;20026;-65
2023/10/04 07:44:39;;;;;;;15.75;10.20;;;;;;;;;;10332184;28;20022;-65
2023/10/04 07:49:40;;;;;;;13.57;9.98;;;;;;;;;;10331436;28;20038;-63
2023/10/04 07:54:41;;;;;;;24.75;9.52;;;;;;;;;;10291850;28;20026;-65
2023/10/04 07:59:43;;;;;;;15.13;8.88;;;;;;;;;;10314875;28;20023;-62
2023/10/04 08:04:48;;;;;;;25.13;8.82;;;;;;;;;;10324803;28;20552;-62
2023/10/04 08:09:49;;;;;;;13.63;7.20;;;;;;;;;;10326180;28;20042;-62
2023/10/04 08:14:49;;;;;;;9.18;7.65;;;;;;;;;;10326821;28;20066;-63
2023/10/04 08:19:50;;;;;;;15.85;7.97;;;;;;;;;;10325857;28;20022;-61
2023/10/04 08:24:52;;;;;;;10.25;7.90;;;;;;;;;;10326715;28;20096;-63
2023/10/04 08:29:54;;;;;;;13.73;7.80;;;;;;;;;;10326305;28;20034;-63
2023/10/04 08:34:55;;;;;;;18.13;8.13;;;;;;;;;;10324121;28;20061;-63
2023/10/04 08:39:56;;;;;;;12.05;7.85;;;;;;;;;;10324561;28;20034;-62
2023/10/04 08:44:57;;;;;;;10.43;6.72;;;;;;;;;;10325447;28;20034;-64
2023/10/04 08:50:02;;;;;;;15.43;7.80;;;;;;;;;;10324648;28;20033;-63
2023/10/04 08:55:07;;;;;;;11.75;7.10;;;;;;;;;;10323115;28;20022;-63
2023/10/04 09:00:15;;;;;;;10.93;7.30;;;;;;;;;;10323927;28;20026;-62
2023/10/04 09:05:20;;;;;;;12.68;7.53;;;;;;;;;;10323940;28;20027;-63
2023/10/04 09:10:24;;;;;;;10.57;7.13;;;;;;;;;;10324098;28;20453;-65
2023/10/04 09:15:25;;;;;;;12.80;7.60;;;;;;;;;;10323392;28;20077;-64
2023/10/04 09:20:31;;;;;;;10.57;7.70;;;;;;;;;;10322336;28;20022;-65
2023/10/04 09:25:40;;;;;;;13.57;7.25;;;;;;;;;;10321781;28;20444;-63
2023/10/04 09:30:40;;;;;;;14.55;7.00;;;;;;;;;;10321834;28;20034;-64
2023/10/04 09:35:43;;;;;;;9.13;6.90;;;;;;;;;;10320592;28;20057;-63
2023/10/04 09:41:02;;;;;;;10.43;6.90;;;;;;;;;;10322486;28;20605;-62
2023/10/04 09:46:11;;;;;;;11.60;7.00;;;;;;;;;;10322121;28;20077;-64
2023/10/04 09:51:12;;;;;;;9.35;7.25;;;;;;;;;;10321199;28;20042;-64
2023/10/04 09:56:14;;;;;;;9.65;6.68;;;;;;;;;;10320804;28;20373;-63
2023/10/04 10:01:17;;;;;;;12.85;7.10;;;;;;;;;;10321205;28;20692;-64
2023/10/04 10:06:22;;;;;;;9.88;6.78;;;;;;;;;;10319632;28;20037;-63
2023/10/04 10:11:23;;;;;;;10.02;6.97;;;;;;;;;;10319284;28;20060;-63
2023/10/04 10:16:24;;;;;;;16.27;7.10;;;;;;;;;;10320195;28;20030;-63
2023/10/04 10:22:02;;;;;;;9.98;6.70;;;;;;;;;;10321702;28;20038;-63
2023/10/04 10:27:17;;;;;;;9.63;6.88;;;;;;;;;;10320608;28;20029;-64
2023/10/04 10:32:23;;;;;;;11.50;7.50;;;;;;;;;;10320412;28;20034;-63
2023/10/04 10:37:25;;;;;;;14.32;6.50;;;;;;;;;;10320146;28;20208;-66
2023/10/04 10:42:25;;;;;;;8.95;6.43;;;;;;;;;;10320132;28;20062;-64
2023/10/04 10:47:26;;;;;;;9.07;6.45;;;;;;;;;;10319957;28;20386;-63
2023/10/04 10:52:39;;;;;;;10.95;7.32;;;;;;;;;;10319682;28;20379;-66
2023/10/04 10:57:43;;;;;;;9.05;6.18;;;;;;;;;;10326095;28;20018;-64
2023/10/04 11:02:44;;;;;;;12.48;7.25;;;;;;;;;;10327364;28;20041;-64
2023/10/04 11:07:50;;;;;;;10.70;6.40;;;;;;;;;;10327269;28;20031;-64
2023/10/04 11:12:54;;;;;;;12.40;6.70;;;;;;;;;;10327038;28;20093;-64
2023/10/04 11:17:55;;;;;;;8.23;6.35;;;;;;;;;;10326820;28;20026;-64
2023/10/04 11:22:56;;;;;;;9.95;6.68;;;;;;;;;;10326341;28;20394;-65
2023/10/04 11:27:57;;;;;;;16.92;7.35;;;;;;;;;;10325659;28;20030;-65
2023/10/04 11:32:58;;;;;;;9.70;7.35;;;;;;;;;;10323814;28;20031;-63
2023/10/04 11:38:04;;;;;;;7.40;6.70;;;;;;;;;;10325844;28;20035;-62
2023/10/04 11:43:08;;;;;;;8.93;6.47;;;;;;;;;;10325052;28;20049;-62
2023/10/04 11:48:10;;;;;;;10.68;6.88;;;;;;;;;;10323895;28;20023;-63
2023/10/04 11:53:12;;;;;;;12.00;7.15;;;;;;;;;;10324629;28;20030;-64
2023/10/04 11:58:13;;;;;;;8.02;6.53;;;;;;;;;;10323845;28;20363;-64
2023/10/04 12:03:13;;;;;;;9.10;6.75;;;;;;;;;;10324422;28;20026;-64
2023/10/04 12:08:14;;;;;;;11.70;6.22;;;;;;;;;;10322477;28;20042;-63
2023/10/04 12:13:14;;;;;;;11.32;7.10;;;;;;;;;;10322014;28;20042;-64
2023/10/04 12:18:18;;;;;;;9.32;6.53;;;;;;;;;;10323401;28;20486;-64
2023/10/04 12:23:19;;;;;;;14.95;6.85;;;;;;;;;;10323629;28;20018;-65
2023/10/04 12:28:20;;;;;;;7.75;6.90;;;;;;;;;;10323216;28;20382;-64
2023/10/04 12:33:21;;;;;;;10.57;6.15;;;;;;;;;;10323018;28;20042;-65
2023/10/04 12:38:25;;;;;;;9.63;7.55;;;;;;;;;;10322831;28;20061;-64
2023/10/04 12:43:25;;;;;;;13.55;8.07;;;;;;;;;;10322700;28;20030;-66
2023/10/04 12:48:26;;;;;;;12.65;7.90;;;;;;;;;;10322973;28;20030;-65
2023/10/04 12:53:27;;;;;;;16.88;8.00;;;;;;;;;;10321407;28;20030;-63
2023/10/04 12:58:28;;;;;;;11.13;7.50;;;;;;;;;;10323237;28;20031;-64
2023/10/04 13:03:31;;;;;;;12.75;8.05;;;;;;;;;;10322848;28;20054;-63
2023/10/04 13:08:32;;;;;;;12.02;8.05;;;;;;;;;;10322602;28;20030;-63
2023/10/04 13:13:33;;;;;;;10.45;8.35;;;;;;;;;;10322171;28;20380;-63
2023/10/04 13:18:34;;;;;;;9.18;7.25;;;;;;;;;;10321333;28;20038;-64
2023/10/04 13:23:36;;;;;;;12.63;7.10;;;;;;;;;;10322216;28;20074;-63
2023/10/04 13:28:38;;;;;;;12.30;6.57;;;;;;;;;;10320274;28;20408;-64
2023/10/04 13:33:39;;;;;;;11.75;7.15;;;;;;;;;;10322048;28;20122;-64
2023/10/04 13:38:39;;;;;;;11.05;6.43;;;;;;;;;;10320522;28;20023;-64
2023/10/04 13:43:41;;;;;;;12.15;7.00;;;;;;;;;;10320009;28;20026;-64
2023/10/04 13:48:43;;;;;;;12.18;7.15;;;;;;;;;;10319217;28;20185;-63
2023/10/04 13:53:44;;;;;;;13.68;6.85;;;;;;;;;;10319670;28;20536;-63
2023/10/04 13:58:45;;;;;;;12.10;6.70;;;;;;;;;;10319957;28;20042;-63
2023/10/04 14:03:45;;;;;;;16.65;6.75;;;;;;;;;;10321123;28;20068;-63
2023/10/04 14:08:46;;;;;;;11.50;6.95;;;;;;;;;;10320950;28;20030;-64
2023/10/04 14:13:51;;;;;;;19.75;7.22;;;;;;;;;;10320175;28;20042;-65
2023/10/04 14:18:52;;;;;;;11.13;6.85;;;;;;;;;;10321206;28;20513;-64
2023/10/04 14:23:52;;;;;;;12.73;6.53;;;;;;;;;;10320748;28;20034;-65
2023/10/04 14:28:53;;;;;;;9.93;6.03;;;;;;;;;;10322090;28;20037;-65
2023/10/04 14:33:54;;;;;;;10.70;6.70;;;;;;;;;;10328256;28;20038;-62
2023/10/04 14:38:55;;;;;;;10.50;6.47;;;;;;;;;;10329028;28;20041;-64
2023/10/04 14:43:57;;;;;;;10.93;5.82;;;;;;;;;;10327764;28;20018;-63
2023/10/04 14:49:05;;;;;;;14.07;6.53;;;;;;;;;;10327329;28;20494;-63
2023/10/04 14:54:06;;;;;;;8.05;5.95;;;;;;;;;;10325708;28;20054;-63
2023/10/04 14:59:06;;;;;;;11.98;5.75;;;;;;;;;;10326520;28;20054;-63
2023/10/04 15:04:07;;;;;;;8.07;6.05;;;;;;;;;;10326816;28;20025;-64
2023/10/04 15:09:11;;;;;;;7.45;5.55;;;;;;;;;;10326833;28;20034;-65
2023/10/04 15:14:12;;;;;;;10.52;6.18;;;;;;;;;;10325116;28;20101;-64
2023/10/04 15:19:12;;;;;;;10.63;5.03;;;;;;;;;;10325985;28;20540;-63
2023/10/04 15:24:16;;;;;;;10.80;5.53;;;;;;;;;;10326334;28;20022;-64
2023/10/04 15:29:17;;;;;;;8.98;5.22;;;;;;;;;;10325778;28;20026;-63
2023/10/04 15:34:18;;;;;;;8.73;5.00;;;;;;;;;;10326212;28;20355;-65
2023/10/04 15:39:23;;;;;;;7.68;5.28;;;;;;;;;;10325927;28;20029;-66
2023/10/04 15:44:24;;;;;;;18.67;4.90;;;;;;;;;;10326627;28;20083;-67
2023/10/04 15:49:25;;;;;;;7.57;4.45;;;;;;;;;;10325715;28;20454;-60
2023/10/04 15:54:26;;;;;;;11.93;5.68;;;;;;;;;;10324622;28;20378;-59
2023/10/04 15:59:27;;;;;;;13.77;5.35;;;;;;;;;;10323531;28;20030;-59
2023/10/04 16:04:27;;;;;;;9.60;4.97;;;;;;;;;;10323412;28;20088;-59
2023/10/04 16:09:28;;;;;;;12.07;5.30;;;;;;;;;;10324072;28;20488;-59
2023/10/04 16:14:28;;;;;;;13.00;5.63;;;;;;;;;;10323434;28;20403;-60
2023/10/04 16:19:32;;;;;;;12.50;5.32;;;;;;;;;;10323219;28;20026;-58
2023/10/04 16:24:32;;;;;;;11.25;5.93;;;;;;;;;;10323394;28;20057;-59
2023/10/04 16:29:33;;;;;;;10.88;5.28;;;;;;;;;;10322820;28;20041;-59
2023/10/04 16:34:34;;;;;;;8.63;4.90;;;;;;;;;;10322380;28;20023;-60
2023/10/04 16:39:34;;;;;;;11.00;4.88;;;;;;;;;;10322930;28;20031;-59
2023/10/04 16:44:35;;;;;;;10.57;5.32;;;;;;;;;;10322743;28;20064;-59
2023/10/04 16:49:35;;;;;;;7.40;4.93;;;;;;;;;;10321521;28;20093;-60
2023/10/04 16:54:36;;;;;;;14.13;5.10;;;;;;;;;;10319761;28;20030;-60
2023/10/04 16:59:37;;;;;;;9.55;4.78;;;;;;;;;;10322356;28;20083;-59
2023/10/04 17:04:37;;;;;;;7.50;4.97;;;;;;;;;;10321926;28;20035;-60
2023/10/04 17:09:38;;;;;;;13.85;5.25;;;;;;;;;;10321231;28;20041;-60
2023/10/04 17:14:39;;;;;;;8.68;5.15;;;;;;;;;;10320563;28;20054;-59
2023/10/04 17:19:42;;;;;;;10.95;5.13;;;;;;;;;;10321374;28;20284;-59
2023/10/04 17:24:43;;;;;;;11.15;5.30;;;;;;;;;;10321455;28;20084;-59
2023/10/04 17:29:44;;;;;;;14.05;5.15;;;;;;;;;;10321357;28;20109;-59
2023/10/04 17:34:45;;;;;;;11.50;5.57;;;;;;;;;;10321545;28;20497;-59
2023/10/04 17:39:46;;;;;;;14.90;4.80;;;;;;;;;;10320696;28;20023;-61
2023/10/04 17:44:47;;;;;;;7.88;5.22;;;;;;;;;;10320601;28;20054;-60
2023/10/04 17:49:52;;;;;;;8.40;5.20;;;;;;;;;;10320765;28;20030;-61
2023/10/04 17:54:53;;;;;;;6.63;4.43;;;;;;;;;;10319314;28;20041;-59
2023/10/04 17:59:54;;;;;;;7.43;4.35;;;;;;;;;;10318616;28;20471;-59
2023/10/04 18:04:56;;;;;;;7.50;4.50;;;;;;;;;;10324576;28;20148;-59
2023/10/04 18:09:57;;;;;;;6.47;4.55;;;;;;;;;;10327789;28;20062;-60
2023/10/04 18:14:58;;;;;;;8.82;4.72;;;;;;;;;;10327363;28;20031;-64
2023/10/04 18:20:01;;;;;;;11.75;4.50;;;;;;;;;;10326933;28;20084;-64
2023/10/04 18:25:02;;;;;;;10.68;4.85;;;;;;;;;;10328045;28;20296;-64
2023/10/04 18:30:06;;;;;;;7.45;4.30;;;;;;;;;;10327729;28;20041;-65
2023/10/04 18:35:07;;;;;;;8.90;4.88;;;;;;;;;;10327986;28;20034;-64
2023/10/04 18:40:09;;;;;;;7.55;4.85;;;;;;;;;;10327735;28;20037;-64
2023/10/04 18:45:10;;;;;;;11.82;4.60;;;;;;;;;;10326215;28;20108;-65
2023/10/04 18:50:11;;;;;;;8.73;4.10;;;;;;;;;;10326086;28;20108;-64
2023/10/04 18:55:13;;;;;;;7.30;4.22;;;;;;;;;;10326351;28;20085;-65
2023/10/04 19:00:13;;;;;;;9.05;4.25;;;;;;;;;;10326718;28;20254;-65
2023/10/04 19:05:14;;;;;;;6.35;3.95;;;;;;;;;;10324819;28;20509;-65
2023/10/04 19:10:18;;;;;;;7.85;4.55;;;;;;;;;;10323019;28;20147;-64
2023/10/04 19:15:20;;;;;;;7.38;4.05;;;;;;;;;;10324740;28;20033;-64
2023/10/04 19:20:23;;;;;;;6.65;4.20;;;;;;;;;;10323852;28;20032;-64
2023/10/04 19:25:24;;;;;;;7.38;4.15;;;;;;;;;;10324982;28;20041;-64
2023/10/04 19:30:30;;;;;;;6.18;4.30;;;;;;;;;;10324073;28;20041;-65
2023/10/04 19:35:31;;;;;;;7.20;4.30;;;;;;;;;;10325534;28;20030;-64
2023/10/04 19:40:32;;;;;;;7.13;4.03;;;;;;;;;;10324107;28;20062;-63
2023/10/04 19:45:33;;;;;;;10.32;4.22;;;;;;;;;;10324109;28;20022;-64
2023/10/04 19:50:34;;;;;;;6.30;4.45;;;;;;;;;;10323904;28;20035;-64
2023/10/04 19:55:36;;;;;;;10.80;4.30;;;;;;;;;;10324013;28;20467;-65
2023/10/04 20:00:36;;;;;;;5.05;4.00;;;;;;;;;;10324569;28;20037;-64
2023/10/04 20:05:37;;;;;;;7.18;3.88;;;;;;;;;;10323494;28;20130;-64
2023/10/04 20:10:38;;;;;;;6.97;4.00;;;;;;;;;;10322325;28;20061;-65
2023/10/04 20:15:40;;;;;;;6.50;3.97;;;;;;;;;;10323305;28;20049;-65
2023/10/04 20:20:41;;;;;;;7.43;4.53;;;;;;;;;;10322288;28;20030;-65
2023/10/04 20:25:44;;;;;;;9.38;4.45;;;;;;;;;;10321903;28;20394;-65
2023/10/04 20:30:45;;;;;;;7.13;4.63;;;;;;;;;;10322045;28;20034;-65
2023/10/04 20:35:46;;;;;;;6.57;4.07;;;;;;;;;;10321905;28;20758;-65
2023/10/04 20:40:46;;;;;;;8.48;4.18;;;;;;;;;;10320012;28;20038;-65
2023/10/04 20:45:48;;;;;;;6.57;4.13;;;;;;;;;;10319436;28;20033;-65
2023/10/04 20:50:50;;;;;;;6.88;4.18;;;;;;;;;;10320167;28;20033;-64
2023/10/04 20:55:51;;;;;;;9.30;4.15;;;;;;;;;;10320473;28;20077;-64
2023/10/04 21:00:52;;;;;;;7.18;4.10;;;;;;;;;;10320075;28;20430;-64
2023/10/04 21:05:52;;;;;;;7.38;4.05;;;;;;;;;;10321283;28;20026;-64
2023/10/04 21:10:53;;;;;;;5.55;3.80;;;;;;;;;;10319016;28;20394;-64
2023/10/04 21:15:53;;;;;;;6.55;4.03;;;;;;;;;;10319851;28;20031;-64
2023/10/04 21:20:54;;;;;;;7.65;3.97;;;;;;;;;;10320994;28;20374;-64
2023/10/04 21:25:54;;;;;;;9.68;4.78;;;;;;;;;;10320613;28;20713;-63
2023/10/04 21:30:58;;;;;;;5.35;4.25;;;;;;;;;;10319704;28;20038;-63
2023/10/04 21:36:04;;;;;;;9.27;4.47;;;;;;;;;;10321065;28;20022;-62
2023/10/04 21:41:06;;;;;;;20.50;4.38;;;;;;;;;;10320294;28;20034;-64
2023/10/04 21:46:11;;;;;;;8.82;4.20;;;;;;;;;;10320971;28;20061;-64
2023/10/04 21:51:24;;;;;;;8.57;4.60;;;;;;;;;;10320440;28;20066;-63
2023/10/04 21:56:25;;;;;;;9.27;4.43;;;;;;;;;;10321418;28;20030;-61
2023/10/04 22:01:28;;;;;;;6.65;4.15;;;;;;;;;;10320187;28;20064;-63
2023/10/04 22:06:29;;;;;;;15.55;4.60;;;;;;;;;;10320207;28;20046;-63
2023/10/04 22:11:31;;;;;;;7.93;4.20;;;;;;;;;;10319671;28;20410;-62
2023/10/04 22:16:31;;;;;;;12.73;4.32;;;;;;;;;;10319593;28;20474;-62
2023/10/04 22:21:33;;;;;;;11.52;4.50;;;;;;;;;;10319596;28;20031;-62
2023/10/04 22:26:35;;;;;;;6.80;4.35;;;;;;;;;;10319658;28;20459;-63
2023/10/04 22:31:36;;;;;;;9.55;4.72;;;;;;;;;;10319156;28;20035;-62
2023/10/04 22:36:37;;;;;;;5.20;3.55;;;;;;;;;;10319677;28;20030;-62
2023/10/04 22:41:39;;;;;;;6.60;3.63;;;;;;;;;;10319525;28;20405;-62
2023/10/04 22:46:39;;;;;;;8.15;4.35;;;;;;;;;;10319289;28;20026;-62
2023/10/04 22:51:40;;;;;;;5.25;4.63;;;;;;;;;;10324585;28;20394;-62
2023/10/04 22:56:41;;;;;;;5.38;4.22;;;;;;;;;;10327085;28;20474;-62
2023/10/04 23:01:43;;;;;;;6.50;3.97;;;;;;;;;;10327721;28;20030;-61
2023/10/04 23:06:45;;;;;;;7.60;4.72;;;;;;;;;;10326859;28;20101;-62
2023/10/04 23:11:46;;;;;;;9.65;4.22;;;;;;;;;;10326717;28;20062;-62
2023/10/04 23:16:46;;;;;;;5.20;4.03;;;;;;;;;;10326962;28;20034;-62
2023/10/04 23:21:49;;;;;;;11.02;4.18;;;;;;;;;;10326110;28;20026;-62
2023/10/04 23:26:54;;;;;;;6.63;3.80;;;;;;;;;;10325943;28;20378;-63
2023/10/04 23:31:56;;;;;;;6.88;4.10;;;;;;;;;;10326239;28;20435;-63
2023/10/04 23:36:56;;;;;;;11.50;3.95;;;;;;;;;;10325705;28;20363;-62
2023/10/04 23:41:59;;;;;;;5.35;4.00;;;;;;;;;;10325432;28;20051;-63
2023/10/04 23:47:04;;;;;;;8.02;4.10;;;;;;;;;;10325152;28;20030;-62
2023/10/04 23:52:04;;;;;;;7.53;4.40;;;;;;;;;;10324904;28;20058;-63
2023/10/04 23:57:26;;;;;;;7.47;3.28;;;;;;;;;;10324900;28;20478;-63
